createdAt,value
2023-03-08T00:01:04.544Z,99382.28
2023-03-08T00:03:31.405Z,99383.69
2023-03-08T00:05:57.886Z,99397.91
2023-03-08T00:08:24.618Z,99405.72
2023-03-08T00:10:51.211Z,99405.91
2023-03-08T00:13:18.304Z,99404.16
2023-03-08T00:15:46.203Z,99402.28
2023-03-08T00:18:12.857Z,99409.19
2023-03-08T00:20:39.383Z,99400.94
2023-03-08T00:23:06.158Z,99406.56
2023-03-08T00:25:32.686Z,99407.66
2023-03-08T00:27:59.150Z,99410.06
2023-03-08T00:30:29.073Z,99405.25
2023-03-08T00:32:55.651Z,99399.13
2023-03-08T00:35:22.266Z,99394.75
2023-03-08T00:37:48.869Z,99402.78
2023-03-08T00:40:15.387Z,99406.56
2023-03-08T00:42:42.202Z,99401.19
2023-03-08T00:45:09.468Z,99416.34
2023-03-08T00:47:35.916Z,99413.59
2023-03-08T00:50:02.671Z,99413.06
2023-03-08T00:52:29.452Z,99409.78
2023-03-08T00:54:56.000Z,99419.91
2023-03-08T00:57:22.478Z,99414.50
2023-03-08T00:59:48.924Z,99414.97
2023-03-08T01:02:15.402Z,99412.34
2023-03-08T01:04:44.693Z,99415.38
2023-03-08T01:07:11.320Z,99415.91
2023-03-08T01:09:37.981Z,99409.22
2023-03-08T01:12:05.347Z,99410.81
2023-03-08T01:14:31.959Z,99409.28
2023-03-08T01:16:58.501Z,99410.78
2023-03-08T01:19:24.981Z,99399.91
2023-03-08T01:21:51.431Z,99407.53
2023-03-08T01:24:17.878Z,99405.75
2023-03-08T01:26:44.325Z,99411.25
2023-03-08T01:29:10.788Z,99406.97
2023-03-08T01:31:37.260Z,99406.81
2023-03-08T01:34:03.709Z,99412.44
2023-03-08T01:36:30.492Z,99414.00
2023-03-08T01:39:01.492Z,99416.84
2023-03-08T01:41:30.005Z,99414.13
2023-03-08T01:43:57.231Z,99413.28
2023-03-08T01:46:28.289Z,99413.72
2023-03-08T01:48:58.526Z,99401.31
2023-03-08T01:51:37.067Z,99411.38
2023-03-08T01:54:08.267Z,99401.38
2023-03-08T01:56:35.648Z,99406.06
2023-03-08T01:59:02.163Z,99406.00
2023-03-08T02:01:28.777Z,99403.38
2023-03-08T02:03:55.307Z,99401.69
2023-03-08T02:06:22.045Z,99402.34
2023-03-08T02:08:48.834Z,99401.22
2023-03-08T02:11:16.160Z,99397.56
2023-03-08T02:13:42.888Z,99401.81
2023-03-08T02:16:12.887Z,99400.66
2023-03-08T02:18:59.445Z,99402.22
2023-03-08T02:21:27.408Z,99389.00
2023-03-08T02:23:54.202Z,99394.13
2023-03-08T02:26:21.369Z,99383.06
2023-03-08T02:28:47.925Z,99393.44
2023-03-08T02:31:14.975Z,99394.41
2023-03-08T02:33:41.610Z,99397.88
2023-03-08T02:36:09.595Z,99395.47
2023-03-08T02:38:36.594Z,99390.66
2023-03-08T02:41:03.021Z,99394.28
2023-03-08T02:43:29.509Z,99392.38
2023-03-08T02:45:55.963Z,99392.00
2023-03-08T02:48:22.444Z,99392.03
2023-03-08T02:50:48.897Z,99382.00
2023-03-08T02:53:15.422Z,99381.72
2023-03-08T02:55:42.260Z,99390.19
2023-03-08T02:58:10.018Z,99385.19
2023-03-08T03:00:36.993Z,99386.13
2023-03-08T03:03:03.521Z,99377.09
2023-03-08T03:05:30.013Z,99385.75
2023-03-08T03:07:58.644Z,99390.34
2023-03-08T03:10:25.889Z,99391.72
2023-03-08T03:12:52.492Z,99385.78
2023-03-08T03:15:18.955Z,99392.09
2023-03-08T03:17:45.477Z,99386.66
2023-03-08T03:20:12.457Z,99396.09
2023-03-08T03:22:38.926Z,99397.59
2023-03-08T03:25:05.929Z,99394.78
2023-03-08T03:27:32.409Z,99391.75
2023-03-08T03:29:58.901Z,99399.44
2023-03-08T03:32:25.537Z,99394.78
2023-03-08T03:34:52.033Z,99399.78
2023-03-08T03:37:18.557Z,99408.25
2023-03-08T03:39:45.149Z,99408.25
2023-03-08T03:42:11.781Z,99405.63
2023-03-08T03:44:38.347Z,99406.31
2023-03-08T03:47:05.541Z,99412.59
2023-03-08T03:49:32.081Z,99404.19
2023-03-08T03:51:58.562Z,99403.69
2023-03-08T03:54:25.410Z,99408.31
2023-03-08T03:56:52.022Z,99408.88
2023-03-08T03:59:18.561Z,99414.81
2023-03-08T04:01:45.102Z,99421.25
2023-03-08T04:04:11.584Z,99417.88
2023-03-08T04:06:38.926Z,99426.34
2023-03-08T04:09:16.401Z,99438.25
2023-03-08T04:11:43.439Z,99436.47
2023-03-08T04:14:10.473Z,99441.72
2023-03-08T04:16:38.616Z,99442.41
2023-03-08T04:19:07.890Z,99433.44
2023-03-08T04:21:34.810Z,99435.25
2023-03-08T04:24:01.422Z,99440.16
2023-03-08T04:26:28.327Z,99434.38
2023-03-08T04:28:54.915Z,99432.75
2023-03-08T04:31:23.945Z,99434.13
2023-03-08T04:33:50.932Z,99436.44
2023-03-08T04:36:18.401Z,99443.78
2023-03-08T04:38:45.749Z,99436.09
2023-03-08T04:41:12.885Z,99431.75
2023-03-08T04:43:50.804Z,99428.19
2023-03-08T04:46:19.025Z,99428.50
2023-03-08T04:48:46.242Z,99430.44
2023-03-08T04:51:14.417Z,99432.72
2023-03-08T04:53:41.721Z,99423.03
2023-03-08T04:56:09.094Z,99423.69
2023-03-08T04:58:36.701Z,99426.34
2023-03-08T05:01:20.581Z,99427.28
2023-03-08T05:03:49.714Z,99413.31
2023-03-08T05:06:16.339Z,99423.19
2023-03-08T05:08:43.017Z,99423.94
2023-03-08T05:11:09.831Z,99417.19
2023-03-08T05:13:38.593Z,99414.91
2023-03-08T05:16:07.040Z,99422.47
2023-03-08T05:18:33.891Z,99423.59
2023-03-08T05:21:05.382Z,99425.03
2023-03-08T05:23:32.248Z,99419.84
2023-03-08T05:26:00.398Z,99425.34
2023-03-08T05:28:28.840Z,99433.34
2023-03-08T05:31:08.695Z,99434.72
2023-03-08T05:33:36.332Z,99428.44
2023-03-08T05:36:03.551Z,99438.75
2023-03-08T05:38:30.406Z,99431.88
2023-03-08T05:41:04.125Z,99438.00
2023-03-08T05:43:30.825Z,99434.13
2023-03-08T05:46:18.527Z,99433.66
2023-03-08T05:48:45.532Z,99425.38
2023-03-08T05:51:14.537Z,99429.91
2023-03-08T05:53:41.108Z,99420.72
2023-03-08T05:56:18.964Z,99430.63
2023-03-08T05:58:47.909Z,99423.38
2023-03-08T06:01:16.859Z,99418.44
2023-03-08T06:03:50.538Z,99421.16
2023-03-08T06:06:17.760Z,99424.53
2023-03-08T06:08:44.622Z,99413.06
2023-03-08T06:11:11.496Z,99427.81
2023-03-08T06:13:37.981Z,99426.59
2023-03-08T06:16:05.086Z,99426.97
2023-03-08T06:18:31.760Z,99420.81
2023-03-08T06:21:03.769Z,99426.53
2023-03-08T06:23:31.712Z,99419.56
2023-03-08T06:25:58.792Z,99426.16
2023-03-08T06:28:26.423Z,99420.53
2023-03-08T06:30:53.649Z,99416.31
2023-03-08T06:33:22.897Z,99423.81
2023-03-08T06:36:02.762Z,99413.72
2023-03-08T06:38:32.389Z,99419.63
2023-03-08T06:41:00.764Z,99415.03
2023-03-08T06:43:27.883Z,99414.13
2023-03-08T06:45:54.717Z,99418.34
2023-03-08T06:48:21.430Z,99416.69
2023-03-08T06:50:47.978Z,99412.47
2023-03-08T06:53:14.769Z,99404.56
2023-03-08T06:55:42.075Z,99409.53
2023-03-08T06:58:09.030Z,99406.22
2023-03-08T07:00:35.822Z,99415.69
2023-03-08T07:03:02.267Z,99404.88
2023-03-08T07:05:28.995Z,99410.53
2023-03-08T07:07:55.441Z,99407.78
2023-03-08T07:10:22.415Z,99405.25
2023-03-08T07:12:51.268Z,99411.53
2023-03-08T07:15:20.323Z,99415.81
2023-03-08T07:17:47.999Z,99417.97
2023-03-08T07:20:16.595Z,99418.53
2023-03-08T07:22:44.678Z,99421.31
2023-03-08T07:25:12.873Z,99423.03
2023-03-08T07:27:39.343Z,99420.16
2023-03-08T07:30:09.711Z,99421.63
2023-03-08T07:32:37.138Z,99417.53
2023-03-08T07:35:03.902Z,99421.41
2023-03-08T07:37:30.346Z,99416.53
2023-03-08T07:39:56.853Z,99422.41
2023-03-08T07:42:23.329Z,99422.28
2023-03-08T07:44:49.906Z,99431.34
2023-03-08T07:47:16.410Z,99431.34
2023-03-08T07:49:42.918Z,99433.16
2023-03-08T07:52:09.388Z,99439.25
2023-03-08T07:54:35.892Z,99433.75
2023-03-08T07:57:03.002Z,99438.78
2023-03-08T07:59:29.504Z,99430.94
2023-03-08T08:01:55.994Z,99429.81
2023-03-08T08:04:23.361Z,99442.56
2023-03-08T08:06:49.961Z,99446.69
2023-03-08T08:09:17.932Z,99440.78
2023-03-08T08:11:44.386Z,99439.91
2023-03-08T08:14:10.839Z,99445.06
2023-03-08T08:16:37.393Z,99437.72
2023-03-08T08:19:03.898Z,99438.94
2023-03-08T08:21:30.349Z,99443.84
2023-03-08T08:23:57.970Z,99450.16
2023-03-08T08:26:24.507Z,99454.09
2023-03-08T08:28:53.210Z,99446.59
2023-03-08T08:31:24.560Z,99451.72
2023-03-08T08:33:51.157Z,99445.00
2023-03-08T08:36:19.746Z,99450.31
2023-03-08T08:38:46.387Z,99451.59
2023-03-08T08:41:17.388Z,99445.25
2023-03-08T08:43:45.852Z,99455.38
2023-03-08T08:46:13.377Z,99454.19
2023-03-08T08:48:40.176Z,99451.44
2023-03-08T08:51:08.278Z,99460.50
2023-03-08T08:53:35.410Z,99458.22
2023-03-08T08:56:29.295Z,99456.09
2023-03-08T08:59:02.854Z,99466.72
2023-03-08T09:01:31.972Z,99456.97
2023-03-08T09:03:59.448Z,99456.75
2023-03-08T09:06:26.853Z,99458.72
2023-03-08T09:08:54.994Z,99462.03
2023-03-08T09:11:22.731Z,99470.31
2023-03-08T09:13:49.286Z,99464.03
2023-03-08T09:16:22.494Z,99467.19
2023-03-08T09:18:49.085Z,99470.94
2023-03-08T09:21:16.199Z,99480.44
2023-03-08T09:23:42.758Z,99467.97
2023-03-08T09:26:09.364Z,99470.59
2023-03-08T09:28:36.114Z,99465.06
2023-03-08T09:31:11.935Z,99460.28
2023-03-08T09:33:51.823Z,99446.22
2023-03-08T09:36:19.106Z,99450.09
2023-03-08T09:38:48.186Z,99440.25
2023-03-08T09:41:25.844Z,99440.38
2023-03-08T09:44:18.702Z,99448.38
2023-03-08T09:46:53.163Z,99452.00
2023-03-08T09:49:24.568Z,99450.38
2023-03-08T09:51:55.151Z,99449.72
2023-03-08T09:54:23.727Z,99445.50
2023-03-08T09:56:52.454Z,99446.44
2023-03-08T09:59:33.559Z,99455.59
2023-03-08T10:02:03.318Z,99446.22
2023-03-08T10:05:09.952Z,99449.84
2023-03-08T10:08:02.498Z,99446.78
2023-03-08T10:10:49.038Z,99448.28
2023-03-08T10:13:36.643Z,99443.88
2023-03-08T10:16:22.722Z,99447.75
2023-03-08T10:19:30.446Z,99435.59
2023-03-08T10:21:58.026Z,99446.31
2023-03-08T10:24:29.427Z,99440.59
2023-03-08T10:27:04.800Z,99444.91
2023-03-08T10:29:31.347Z,99438.69
2023-03-08T10:31:57.809Z,99439.97
2023-03-08T10:34:29.904Z,99436.38
2023-03-08T10:37:06.424Z,99442.88
2023-03-08T10:39:32.901Z,99443.56
2023-03-08T10:42:00.966Z,99435.69
2023-03-08T10:44:33.680Z,99433.88
2023-03-08T10:47:02.105Z,99435.38
2023-03-08T10:49:28.558Z,99443.69
2023-03-08T10:52:00.518Z,99446.59
2023-03-08T10:54:28.583Z,99438.66
2023-03-08T10:57:00.160Z,99440.59
2023-03-08T10:59:32.411Z,99437.44
2023-03-08T11:02:13.493Z,99443.22
2023-03-08T11:04:51.544Z,99441.72
2023-03-08T11:07:26.179Z,99431.88
2023-03-08T11:09:53.563Z,99431.88
2023-03-08T11:12:25.066Z,99434.41
2023-03-08T11:14:52.530Z,99422.84
2023-03-08T11:17:35.652Z,99428.66
2023-03-08T11:20:26.575Z,99429.66
2023-03-08T11:22:59.391Z,99419.75
2023-03-08T11:25:44.501Z,99418.53
2023-03-08T11:28:48.363Z,99426.09
2023-03-08T11:31:30.847Z,99432.25
2023-03-08T11:34:19.715Z,99419.78
2023-03-08T11:37:03.183Z,99420.84
2023-03-08T11:39:54.439Z,99420.81
2023-03-08T11:42:26.943Z,99427.88
2023-03-08T11:45:00.478Z,99423.03
2023-03-08T11:47:45.694Z,99430.41
2023-03-08T11:50:31.989Z,99426.84
2023-03-08T11:53:04.421Z,99428.44
2023-03-08T11:55:50.795Z,99420.28
2023-03-08T11:58:49.184Z,99420.56
2023-03-08T12:01:29.965Z,99412.34
2023-03-08T12:04:03.275Z,99417.25
2023-03-08T12:06:41.807Z,99403.97
2023-03-08T12:09:37.638Z,99408.09
2023-03-08T12:12:15.800Z,99394.22
2023-03-08T12:15:00.548Z,99414.13
2023-03-08T12:17:44.084Z,99405.25
2023-03-08T12:20:15.629Z,99400.78
2023-03-08T12:22:58.252Z,99395.97
2023-03-08T12:25:38.061Z,99394.91
2023-03-08T12:28:25.282Z,99388.69
2023-03-08T12:30:57.402Z,99390.34
2023-03-08T12:33:24.293Z,99390.13
2023-03-08T12:36:00.171Z,99385.91
2023-03-08T12:38:34.377Z,99382.38
2023-03-08T12:41:01.050Z,99380.50
2023-03-08T12:43:32.970Z,99383.28
2023-03-08T12:46:01.846Z,99380.34
2023-03-08T12:48:40.079Z,99377.69
2023-03-08T12:51:12.595Z,99381.13
2023-03-08T12:53:51.152Z,99376.31
2023-03-08T12:56:24.935Z,99374.00
2023-03-08T12:59:03.173Z,99375.78
2023-03-08T13:01:41.647Z,99370.75
2023-03-08T13:04:39.263Z,99370.03
2023-03-08T13:07:12.350Z,99373.41
2023-03-08T13:09:41.923Z,99377.50
2023-03-08T13:12:08.370Z,99372.31
2023-03-08T13:14:46.527Z,99372.00
2023-03-08T13:17:31.404Z,99375.56
2023-03-08T13:20:10.180Z,99383.75
2023-03-08T13:22:54.407Z,99384.22
2023-03-08T13:25:36.066Z,99380.06
2023-03-08T13:28:19.474Z,99382.59
2023-03-08T13:30:52.956Z,99380.69
2023-03-08T13:33:23.885Z,99388.28
2023-03-08T13:36:02.423Z,99385.31
2023-03-08T13:38:32.716Z,99388.47
2023-03-08T13:40:59.684Z,99387.78
2023-03-08T13:43:28.935Z,99392.38
2023-03-08T13:45:58.940Z,99387.94
2023-03-08T13:48:29.563Z,99397.09
2023-03-08T13:50:56.078Z,99396.25
2023-03-08T13:53:27.976Z,99403.34
2023-03-08T13:55:57.297Z,99395.41
2023-03-08T13:58:46.128Z,99403.75
2023-03-08T14:01:22.527Z,99401.22
2023-03-08T14:03:49.904Z,99402.97
2023-03-08T14:06:24.379Z,99399.81
2023-03-08T14:08:51.654Z,99411.81
2023-03-08T14:11:24.001Z,99407.19
2023-03-08T14:13:52.786Z,99405.06
2023-03-08T14:16:36.881Z,99399.81
2023-03-08T14:19:20.663Z,99399.91
2023-03-08T14:22:08.822Z,99396.09
2023-03-08T14:24:36.288Z,99389.81
2023-03-08T14:27:04.938Z,99401.09
2023-03-08T14:29:34.539Z,99393.56
2023-03-08T14:32:06.265Z,99388.81
2023-03-08T14:34:40.990Z,99385.06
2023-03-08T14:37:16.910Z,99378.53
2023-03-08T14:39:48.062Z,99391.41
2023-03-08T14:42:23.971Z,99386.03
2023-03-08T14:44:57.742Z,99384.44
2023-03-08T14:47:29.530Z,99382.88
2023-03-08T14:50:03.759Z,99377.47
2023-03-08T14:52:31.864Z,99375.56
2023-03-08T14:54:58.343Z,99375.38
2023-03-08T14:57:27.419Z,99367.16
2023-03-08T15:00:05.026Z,99375.31
2023-03-08T15:02:31.479Z,99372.31
2023-03-08T15:04:58.645Z,99371.28
2023-03-08T15:07:34.480Z,99352.91
2023-03-08T15:10:01.475Z,99365.19
2023-03-08T15:12:27.922Z,99365.28
2023-03-08T15:14:56.216Z,99365.06
2023-03-08T15:17:22.747Z,99363.06
2023-03-08T15:19:50.057Z,99364.75
2023-03-08T15:22:17.132Z,99371.09
2023-03-08T15:24:43.614Z,99370.28
2023-03-08T15:27:13.916Z,99368.22
2023-03-08T15:29:40.401Z,99361.50
2023-03-08T15:32:07.599Z,99356.94
2023-03-08T15:34:35.129Z,99363.41
2023-03-08T15:37:01.673Z,99364.47
2023-03-08T15:39:28.145Z,99355.16
2023-03-08T15:41:54.698Z,99356.41
2023-03-08T15:44:21.233Z,99355.97
2023-03-08T15:46:47.747Z,99366.41
2023-03-08T15:49:14.327Z,99354.44
2023-03-08T15:51:40.895Z,99359.31
2023-03-08T15:54:07.557Z,99363.09
2023-03-08T15:56:34.493Z,99354.03
2023-03-08T15:59:01.200Z,99355.06
2023-03-08T16:01:27.843Z,99348.75
2023-03-08T16:03:57.551Z,99348.38
2023-03-08T16:06:24.619Z,99356.97
2023-03-08T16:08:51.128Z,99359.56
2023-03-08T16:11:22.237Z,99354.75
2023-03-08T16:13:51.154Z,99346.09
2023-03-08T16:16:18.371Z,99344.34
2023-03-08T16:18:45.245Z,99347.56
2023-03-08T16:21:12.085Z,99346.72
2023-03-08T16:23:39.538Z,99346.72
2023-03-08T16:26:15.806Z,99348.75
2023-03-08T16:28:47.279Z,99352.44
2023-03-08T16:31:15.330Z,99365.66
2023-03-08T16:33:42.048Z,99358.13
2023-03-08T16:36:09.173Z,99355.28
2023-03-08T16:38:37.479Z,99359.38
2023-03-08T16:41:13.973Z,99357.66
2023-03-08T16:43:49.792Z,99356.94
2023-03-08T16:46:22.381Z,99350.22
2023-03-08T16:48:50.635Z,99357.56
2023-03-08T16:51:23.532Z,99358.22
2023-03-08T16:53:50.823Z,99364.34
2023-03-08T16:56:24.083Z,99362.34
2023-03-08T16:58:52.144Z,99366.28
2023-03-08T17:01:20.104Z,99354.88
2023-03-08T17:03:48.533Z,99357.69
2023-03-08T17:06:20.014Z,99347.16
2023-03-08T17:08:48.676Z,99354.97
2023-03-08T17:11:21.047Z,99358.00
2023-03-08T17:13:54.010Z,99360.25
2023-03-08T17:16:22.815Z,99357.75
2023-03-08T17:18:50.780Z,99364.75
2023-03-08T17:21:20.351Z,99355.25
2023-03-08T17:23:47.756Z,99362.59
2023-03-08T17:26:17.932Z,99363.75
2023-03-08T17:28:46.994Z,99368.22
2023-03-08T17:31:16.515Z,99363.81
2023-03-08T17:33:45.496Z,99360.59
2023-03-08T17:36:14.815Z,99364.75
2023-03-08T17:38:41.951Z,99364.31
2023-03-08T17:41:11.104Z,99363.47
2023-03-08T17:43:41.519Z,99362.75
2023-03-08T17:46:12.662Z,99368.28
2023-03-08T17:48:42.974Z,99365.63
2023-03-08T17:51:17.753Z,99366.53
2023-03-08T17:53:45.695Z,99360.88
2023-03-08T17:56:21.581Z,99363.69
2023-03-08T17:58:49.341Z,99368.38
2023-03-08T18:01:19.127Z,99369.00
2023-03-08T18:03:47.502Z,99373.09
2023-03-08T18:06:35.271Z,99370.50
2023-03-08T18:09:11.635Z,99372.63
2023-03-08T18:11:41.269Z,99365.00
2023-03-08T18:14:15.065Z,99362.91
2023-03-08T18:16:43.208Z,99359.72
2023-03-08T18:19:11.096Z,99353.91
2023-03-08T18:21:41.140Z,99363.22
2023-03-08T18:24:11.817Z,99372.25
2023-03-08T18:26:40.684Z,99368.13
2023-03-08T18:29:09.519Z,99360.06
2023-03-08T18:31:37.544Z,99363.50
2023-03-08T18:34:05.396Z,99359.25
2023-03-08T18:36:36.546Z,99351.38
2023-03-08T18:39:05.709Z,99349.72
2023-03-08T18:41:34.374Z,99350.06
2023-03-08T18:44:01.697Z,99350.59
2023-03-08T18:46:30.094Z,99355.97
2023-03-08T18:49:00.050Z,99359.84
2023-03-08T18:51:31.863Z,99351.72
2023-03-08T18:53:59.385Z,99351.72
2023-03-08T18:56:27.526Z,99356.50
2023-03-08T18:58:55.787Z,99353.78
2023-03-08T19:01:23.544Z,99363.34
2023-03-08T19:03:51.910Z,99352.75
2023-03-08T19:06:24.149Z,99355.41
2023-03-08T19:08:51.900Z,99364.97
2023-03-08T19:11:26.154Z,99371.28
2023-03-08T19:13:54.724Z,99363.84
2023-03-08T19:16:29.590Z,99360.91
2023-03-08T19:19:03.370Z,99360.47
2023-03-08T19:21:33.457Z,99364.53
2023-03-08T19:24:01.031Z,99360.66
2023-03-08T19:26:36.487Z,99357.41
2023-03-08T19:29:15.623Z,99353.19
2023-03-08T19:32:04.658Z,99353.41
2023-03-08T19:34:33.773Z,99345.88
2023-03-08T19:37:03.604Z,99352.97
2023-03-08T19:39:33.817Z,99342.41
2023-03-08T19:42:04.165Z,99341.84
2023-03-08T19:44:31.577Z,99347.78
2023-03-08T19:47:00.533Z,99333.28
2023-03-08T19:49:31.241Z,99338.28
2023-03-08T19:52:03.553Z,99338.88
2023-03-08T19:54:30.870Z,99337.63
2023-03-08T19:56:58.549Z,99333.31
2023-03-08T19:59:26.128Z,99329.84
2023-03-08T20:01:54.509Z,99333.56
2023-03-08T20:04:22.244Z,99338.81
2023-03-08T20:06:50.357Z,99330.31
2023-03-08T20:09:27.662Z,99337.19
2023-03-08T20:11:58.665Z,99343.97
2023-03-08T20:14:31.220Z,99338.50
2023-03-08T20:17:00.100Z,99353.16
2023-03-08T20:19:28.352Z,99356.53
2023-03-08T20:21:55.290Z,99357.47
2023-03-08T20:24:24.341Z,99365.91
2023-03-08T20:26:53.113Z,99355.41
2023-03-08T20:29:21.784Z,99358.53
2023-03-08T20:31:54.033Z,99354.66
2023-03-08T20:34:21.640Z,99353.13
2023-03-08T20:36:50.332Z,99351.81
2023-03-08T20:39:19.112Z,99352.38
2023-03-08T20:41:46.300Z,99357.84
2023-03-08T20:44:14.554Z,99354.38
2023-03-08T20:46:41.500Z,99355.28
2023-03-08T20:49:08.455Z,99363.28
2023-03-08T20:51:36.583Z,99357.88
2023-03-08T20:54:05.123Z,99364.16
2023-03-08T20:56:33.440Z,99362.19
2023-03-08T20:59:00.627Z,99366.78
2023-03-08T21:01:30.284Z,99379.81
2023-03-08T21:03:56.805Z,99382.25
2023-03-08T21:06:26.896Z,99387.53
2023-03-08T21:08:53.755Z,99389.78
2023-03-08T21:11:20.841Z,99378.66
2023-03-08T21:13:48.653Z,99379.06
2023-03-08T21:16:17.329Z,99367.47
2023-03-08T21:18:46.040Z,99376.16
2023-03-08T21:21:34.434Z,99390.56
2023-03-08T21:24:10.862Z,99379.63
2023-03-08T21:26:37.935Z,99377.09
2023-03-08T21:29:06.911Z,99370.44
2023-03-08T21:31:35.691Z,99381.63
2023-03-08T21:34:03.413Z,99371.78
2023-03-08T21:36:30.334Z,99368.63
2023-03-08T21:38:57.789Z,99365.81
2023-03-08T21:41:30.577Z,99364.31
2023-03-08T21:43:57.620Z,99364.16
2023-03-08T21:46:24.284Z,99365.91
2023-03-08T21:48:50.948Z,99368.63
2023-03-08T21:51:17.436Z,99370.16
2023-03-08T21:53:44.461Z,99362.09
2023-03-08T21:56:14.395Z,99357.59
2023-03-08T21:58:40.918Z,99352.22
2023-03-08T22:01:07.932Z,99354.81
2023-03-08T22:03:34.754Z,99343.41
2023-03-08T22:06:01.191Z,99340.16
2023-03-08T22:08:27.796Z,99345.81
2023-03-08T22:10:54.868Z,99353.31
2023-03-08T22:13:21.688Z,99348.59
2023-03-08T22:15:48.281Z,99347.97
2023-03-08T22:18:15.103Z,99347.63
2023-03-08T22:20:41.814Z,99345.22
2023-03-08T22:23:08.290Z,99343.66
2023-03-08T22:25:34.934Z,99343.34
2023-03-08T22:28:01.386Z,99349.53
2023-03-08T22:30:27.849Z,99340.81
2023-03-08T22:32:54.823Z,99343.97
2023-03-08T22:35:22.369Z,99340.63
2023-03-08T22:37:49.671Z,99341.56
2023-03-08T22:40:18.390Z,99333.38
2023-03-08T22:42:46.025Z,99336.66
2023-03-08T22:45:12.794Z,99340.81
2023-03-08T22:47:39.240Z,99344.91
2023-03-08T22:50:06.320Z,99339.44
2023-03-08T22:52:33.563Z,99337.91
2023-03-08T22:55:00.007Z,99344.91
2023-03-08T22:57:26.447Z,99338.66
2023-03-08T22:59:57.194Z,99344.34
2023-03-08T23:02:23.812Z,99349.41
2023-03-08T23:04:50.661Z,99344.72
2023-03-08T23:07:17.372Z,99346.66
2023-03-08T23:09:43.831Z,99336.38
2023-03-08T23:12:10.301Z,99337.97
2023-03-08T23:14:36.858Z,99339.72
2023-03-08T23:17:03.355Z,99334.19
2023-03-08T23:19:29.836Z,99337.16
2023-03-08T23:21:56.562Z,99339.03
2023-03-08T23:24:23.099Z,99341.28
2023-03-08T23:26:49.649Z,99341.69
2023-03-08T23:29:16.249Z,99340.09
2023-03-08T23:31:45.274Z,99331.75
2023-03-08T23:34:12.035Z,99339.03
2023-03-08T23:36:38.472Z,99333.31
2023-03-08T23:39:04.979Z,99330.84
2023-03-08T23:41:32.008Z,99335.63
2023-03-08T23:44:00.533Z,99328.94
2023-03-08T23:46:28.224Z,99331.31
2023-03-08T23:48:56.053Z,99325.28
2023-03-08T23:51:24.365Z,99334.38
2023-03-08T23:53:52.636Z,99330.84
2023-03-08T23:56:30.505Z,99327.84
2023-03-08T23:58:59.022Z,99326.41
